Fecha, hora, temperatura, viento dirección y velocidad, humedad y presión.

  • 19-03-2019 23:00:00 | 8.50°C | Nordeste |20.00 km/h | 82.00% | 1002.30 hPa
  • 19-03-2019 22:00:00 | 8.80°C | Nordeste |30.00 km/h | 82.00% | 1002.00 hPa
  • 19-03-2019 21:00:00 | 9.20°C | Nordeste |36.00 km/h | 82.00% | 1001.40 hPa
  • 19-03-2019 20:00:00 | 9.50°C | Nordeste |33.00 km/h | 81.00% | 1001.40 hPa
  • 19-03-2019 19:00:00 | 10.70°C | Nordeste |27.00 km/h | 77.00% | 1001.30 hPa
  • 19-03-2019 18:00:00 | 10.90°C | Nordeste |23.00 km/h | 77.00% | 1001.20 hPa
  • 19-03-2019 17:00:00 | 11.70°C | Nordeste |25.00 km/h | 73.00% | 1001.00 hPa
  • 19-03-2019 16:00:00 | 11.50°C | Nordeste |21.00 km/h | 73.00% | 1001.30 hPa
  • 19-03-2019 15:00:00 | 11.60°C | Nordeste |22.00 km/h | 72.00% | 1001.50 hPa
  • 19-03-2019 14:00:00 | 11.40°C | Nordeste |30.00 km/h | 74.00% | 1001.90 hPa
  • 19-03-2019 13:00:00 | 12.20°C | Nordeste |23.00 km/h | 69.00% | 1002.50 hPa
  • 19-03-2019 12:00:00 | 10.60°C | Nordeste |25.00 km/h | 72.00% | 1002.80 hPa
  • 19-03-2019 11:00:00 | 10.10°C | Nordeste |21.00 km/h | 79.00% | 1002.80 hPa
  • 19-03-2019 10:00:00 | 9.20°C | Nordeste |23.00 km/h | 81.00% | 1002.60 hPa
  • 19-03-2019 09:00:00 | 8.00°C | Nordeste |19.00 km/h | 85.00% | 1002.40 hPa
  • 19-03-2019 08:00:00 | 7.60°C | Nordeste |21.00 km/h | 83.00% | 1001.80 hPa
  • 19-03-2019 07:00:00 | 7.40°C | Nordeste |22.00 km/h | 83.00% | 1001.40 hPa
  • 19-03-2019 06:00:00 | 7.70°C | Nordeste |19.00 km/h | 82.00% | 1001.30 hPa
  • 19-03-2019 05:00:00 | 7.30°C | Nordeste |23.00 km/h | 80.00% | 1001.20 hPa
  • 19-03-2019 04:00:00 | 7.40°C | Nordeste |22.00 km/h | 80.00% | 1001.30 hPa
  • 19-03-2019 03:00:00 | 7.60°C | Nordeste |23.00 km/h | 79.00% | 1001.80 hPa
  • 19-03-2019 02:00:00 | 7.90°C | Nordeste |20.00 km/h | 78.00% | 1002.10 hPa
  • 19-03-2019 01:00:00 | 8.40°C | Nordeste |19.00 km/h | 77.00% | 1002.50 hPa
  • 19-03-2019 00:00:00 | 8.20°C | Nordeste |17.00 km/h | 77.00% | 1002.90 hPa
    • diseño web asturias Información sobre el estado de las mareas, altura de la marejada, temperatura del agua y otros datos de Gijón en Asturias.

      Surf Gijón